createdAt,value
2018-12-17T00:01:04.177Z,18.70
2018-12-17T00:05:07.133Z,19.10
2018-12-17T00:09:10.353Z,18.37
2018-12-17T00:13:13.257Z,16.27
2018-12-17T00:17:16.411Z,17.80
2018-12-17T00:21:19.449Z,15.60
2018-12-17T00:25:22.458Z,15.43
2018-12-17T00:29:25.345Z,15.40
2018-12-17T00:33:28.225Z,18.63
2018-12-17T00:37:31.256Z,16.50
2018-12-17T00:41:34.161Z,17.10
2018-12-17T00:45:37.285Z,17.17
2018-12-17T00:49:40.149Z,15.27
2018-12-17T00:53:43.080Z,15.63
2018-12-17T00:57:46.154Z,16.10
2018-12-17T01:01:49.033Z,18.50
2018-12-17T01:05:52.084Z,16.77
2018-12-17T01:09:55.189Z,17.87
2018-12-17T01:13:58.149Z,16.50
2018-12-17T01:18:01.113Z,17.97
2018-12-17T01:22:04.100Z,18.13
2018-12-17T01:26:08.021Z,19.57
2018-12-17T01:30:11.234Z,18.53
2018-12-17T01:34:14.135Z,19.60
2018-12-17T01:38:17.067Z,20.30
2018-12-17T01:42:20.230Z,20.00
2018-12-17T01:46:23.317Z,17.60
2018-12-17T01:50:26.477Z,15.03
2018-12-17T01:54:29.337Z,18.10
2018-12-17T01:58:32.221Z,17.90
2018-12-17T02:02:35.141Z,16.17
2018-12-17T02:06:38.112Z,16.87
2018-12-17T02:10:40.993Z,17.73
2018-12-17T02:14:43.969Z,15.97
2018-12-17T02:18:47.089Z,18.03
2018-12-17T02:22:50.178Z,15.93
2018-12-17T02:26:53.049Z,17.07
2018-12-17T02:30:56.215Z,16.60
2018-12-17T02:34:59.278Z,18.33
2018-12-17T02:39:02.224Z,16.70
2018-12-17T02:43:05.376Z,17.77
2018-12-17T02:47:08.277Z,16.00
2018-12-17T02:51:11.261Z,18.07
2018-12-17T02:55:14.206Z,18.60
2018-12-17T02:59:17.281Z,19.50
2018-12-17T03:03:20.233Z,18.40
2018-12-17T03:07:23.168Z,17.47
2018-12-17T03:11:26.327Z,19.60
2018-12-17T03:15:29.349Z,18.20
2018-12-17T03:19:32.237Z,19.90
2018-12-17T03:23:35.325Z,20.40
2018-12-17T03:27:38.413Z,18.77
2018-12-17T03:31:41.420Z,20.90
2018-12-17T03:35:44.546Z,20.70
2018-12-17T03:39:47.528Z,19.57
2018-12-17T03:43:50.402Z,21.03
2018-12-17T03:47:53.499Z,18.23
2018-12-17T03:51:56.381Z,19.73
2018-12-17T03:55:59.250Z,16.97
2018-12-17T04:00:02.124Z,19.40
2018-12-17T04:04:05.157Z,20.30
2018-12-17T04:08:08.037Z,17.97
2018-12-17T04:12:10.910Z,17.27
2018-12-17T04:16:13.786Z,18.00
2018-12-17T04:20:16.867Z,17.30
2018-12-17T04:24:19.955Z,16.37
2018-12-17T04:28:23.174Z,18.03
2018-12-17T04:32:26.329Z,17.50
2018-12-17T04:36:29.483Z,18.03
2018-12-17T04:40:32.649Z,17.03
2018-12-17T04:44:35.517Z,18.33
2018-12-17T04:48:38.678Z,19.13
2018-12-17T04:52:41.547Z,16.50
2018-12-17T04:56:44.666Z,17.30
2018-12-17T05:00:47.533Z,16.07
2018-12-17T05:04:50.409Z,16.80
2018-12-17T05:08:53.489Z,17.43
2018-12-17T05:12:56.380Z,18.77
2018-12-17T05:16:59.478Z,20.30
2018-12-17T05:21:03.566Z,21.27
2018-12-17T05:25:07.171Z,19.90
2018-12-17T05:29:10.041Z,21.80
2018-12-17T05:33:13.279Z,21.13
2018-12-17T05:37:16.449Z,22.57
2018-12-17T05:41:19.330Z,22.70
2018-12-17T05:45:22.229Z,24.90
2018-12-17T05:49:25.326Z,23.53
2018-12-17T05:53:28.221Z,25.33
2018-12-17T05:57:31.373Z,24.60
2018-12-17T06:01:34.254Z,24.63
2018-12-17T06:05:37.126Z,26.80
2018-12-17T06:09:40.225Z,25.33
2018-12-17T06:13:43.089Z,25.47
2018-12-17T06:17:45.986Z,26.73
2018-12-17T06:21:49.059Z,24.73
2018-12-17T06:25:51.993Z,25.20
2018-12-17T06:29:54.862Z,27.30
2018-12-17T06:33:57.737Z,26.43
2018-12-17T06:38:00.902Z,26.13
2018-12-17T06:42:04.055Z,28.40
2018-12-17T06:46:06.944Z,26.10
2018-12-17T06:50:09.941Z,27.50
2018-12-17T06:54:13.097Z,29.50
2018-12-17T06:58:16.273Z,29.90
2018-12-17T07:02:19.625Z,30.27
2018-12-17T07:06:22.581Z,30.07
2018-12-17T07:10:25.654Z,31.70
2018-12-17T07:14:28.738Z,31.30
2018-12-17T07:18:31.653Z,33.40
2018-12-17T07:22:34.537Z,33.20
2018-12-17T07:26:37.682Z,32.17
2018-12-17T07:30:40.557Z,32.03
2018-12-17T07:34:43.585Z,30.57
2018-12-17T07:38:46.738Z,30.17
2018-12-17T07:42:49.603Z,32.70
2018-12-17T07:46:52.533Z,32.70
2018-12-17T07:50:55.435Z,32.17
2018-12-17T07:54:58.310Z,27.83
2018-12-17T07:59:01.231Z,27.77
2018-12-17T08:03:04.177Z,27.80
2018-12-17T08:07:07.383Z,28.63
2018-12-17T08:11:10.354Z,26.40
2018-12-17T08:15:13.629Z,26.23
2018-12-17T08:19:16.835Z,28.40
2018-12-17T08:23:19.726Z,26.70
2018-12-17T08:27:22.893Z,25.27
2018-12-17T08:31:26.078Z,25.27
2018-12-17T08:35:29.002Z,25.43
2018-12-17T08:39:32.186Z,23.47
2018-12-17T08:43:35.306Z,25.20
2018-12-17T08:47:38.223Z,23.23
2018-12-17T08:51:41.488Z,23.00
2018-12-17T08:55:44.471Z,21.47
2018-12-17T08:59:47.685Z,24.63
2018-12-17T09:03:50.566Z,22.27
2018-12-17T09:07:53.706Z,23.60
2018-12-17T09:11:56.803Z,26.30
2018-12-17T09:15:59.790Z,23.60
2018-12-17T09:20:03.540Z,21.47
2018-12-17T09:24:06.926Z,20.53
2018-12-17T09:28:20.429Z,22.90
2018-12-17T09:32:23.341Z,21.93
2018-12-17T09:36:27.569Z,19.60
2018-12-17T09:40:30.502Z,21.40
2018-12-17T09:44:33.519Z,19.90
2018-12-17T09:48:36.547Z,20.77
2018-12-17T09:52:39.700Z,21.77
2018-12-17T09:56:42.858Z,18.90
2018-12-17T10:00:46.036Z,19.20
2018-12-17T10:04:49.030Z,20.13
2018-12-17T10:08:51.964Z,18.77
2018-12-17T10:12:55.090Z,19.03
2018-12-17T10:16:58.538Z,17.47
2018-12-17T10:21:01.520Z,18.53
2018-12-17T10:25:05.157Z,23.67
2018-12-17T10:29:08.416Z,23.80
2018-12-17T10:33:17.199Z,21.60
2018-12-17T10:37:20.418Z,18.93
2018-12-17T10:41:23.405Z,18.67
2018-12-17T10:45:26.301Z,23.23
2018-12-17T10:49:29.533Z,23.10
2018-12-17T10:58:56.695Z,19.13
2018-12-17T11:03:05.607Z,19.47
2018-12-17T11:07:08.570Z,21.90
2018-12-17T11:11:13.700Z,18.97
2018-12-17T11:15:16.933Z,19.43
2018-12-17T11:19:20.285Z,19.30
2018-12-17T11:23:23.279Z,19.73
2018-12-17T11:27:26.249Z,18.60
2018-12-17T11:31:29.189Z,19.20
2018-12-17T11:35:32.209Z,18.73
2018-12-17T11:39:35.214Z,20.30
2018-12-17T11:43:43.770Z,18.40
2018-12-17T11:47:43.297Z,19.57
2018-12-17T11:51:46.568Z,18.80
2018-12-17T11:55:49.798Z,20.13
2018-12-17T11:59:53.930Z,20.17
2018-12-17T12:03:56.865Z,19.40
2018-12-17T12:07:59.776Z,20.70
2018-12-17T12:12:02.771Z,21.37
2018-12-17T12:16:05.706Z,19.57
2018-12-17T12:20:08.971Z,19.53
2018-12-17T12:24:12.003Z,20.00
2018-12-17T12:28:15.037Z,20.70
2018-12-17T12:32:17.953Z,19.63
2018-12-17T12:36:20.856Z,21.30
2018-12-17T12:40:24.042Z,18.43
2018-12-17T12:44:27.321Z,20.03
2018-12-17T12:48:30.459Z,19.17
2018-12-17T12:52:33.434Z,20.93
2018-12-17T12:56:36.377Z,19.27
2018-12-17T13:00:39.388Z,21.40
2018-12-17T13:04:42.297Z,20.97
2018-12-17T13:08:45.202Z,19.80
2018-12-17T13:12:48.110Z,19.43
2018-12-17T13:16:51.302Z,19.27
2018-12-17T13:20:54.213Z,20.00
2018-12-17T13:24:57.093Z,20.33
2018-12-17T13:29:00.382Z,20.90
2018-12-17T13:33:03.373Z,20.20
2018-12-17T13:37:06.403Z,19.50
2018-12-17T13:41:09.321Z,20.10
2018-12-17T13:45:12.249Z,18.07
2018-12-17T13:49:15.276Z,19.27
2018-12-17T13:53:23.951Z,20.20
2018-12-17T13:57:27.108Z,18.07
2018-12-17T14:01:31.141Z,18.40
2018-12-17T14:05:34.009Z,17.50
2018-12-17T14:09:42.469Z,17.43
2018-12-17T14:13:45.486Z,16.17
2018-12-17T14:17:48.429Z,15.90
2018-12-17T14:21:58.769Z,16.03
2018-12-17T14:26:01.969Z,19.17
2018-12-17T14:30:05.745Z,16.00
2018-12-17T14:34:08.861Z,15.50
2018-12-17T14:38:11.742Z,14.60
2018-12-17T14:42:14.837Z,17.20
2018-12-17T14:46:17.705Z,15.90
2018-12-17T14:50:20.723Z,14.90
2018-12-17T14:54:23.953Z,15.20
2018-12-17T14:58:26.848Z,13.60
2018-12-17T15:02:29.790Z,12.93
2018-12-17T15:06:32.873Z,10.60
2018-12-17T15:10:36.033Z,12.07
2018-12-17T15:14:39.093Z,12.07
2018-12-17T15:18:41.957Z,10.93
2018-12-17T15:22:45.052Z,11.30
2018-12-17T15:26:48.083Z,9.50
2018-12-17T15:30:51.245Z,8.77
2018-12-17T15:34:54.319Z,8.33
2018-12-17T15:38:57.256Z,8.47
2018-12-17T15:43:00.389Z,8.40
2018-12-17T15:47:03.285Z,7.00
2018-12-17T15:51:06.152Z,8.40
2018-12-17T15:55:09.055Z,6.40
2018-12-17T15:59:12.305Z,8.07
2018-12-17T16:03:15.243Z,7.87
2018-12-17T16:07:18.253Z,7.90
2018-12-17T16:11:21.334Z,8.00
2018-12-17T16:15:29.886Z,7.47
2018-12-17T16:19:33.127Z,6.50
2018-12-17T16:23:36.198Z,6.63
2018-12-17T16:27:39.077Z,6.20
2018-12-17T16:31:42.001Z,5.43
2018-12-17T16:35:44.876Z,7.10
2018-12-17T16:39:47.960Z,7.20
2018-12-17T16:43:50.973Z,6.20
2018-12-17T16:47:53.901Z,6.60
2018-12-17T16:51:57.069Z,7.43
2018-12-17T16:55:59.959Z,6.33
2018-12-17T17:00:03.214Z,7.10
2018-12-17T17:04:06.241Z,6.17
2018-12-17T17:08:09.209Z,5.67
2018-12-17T17:12:12.281Z,7.00
2018-12-17T17:16:15.676Z,6.40
2018-12-17T17:20:18.746Z,7.90
2018-12-17T17:24:22.042Z,7.80
2018-12-17T17:28:24.902Z,7.13
2018-12-17T17:32:27.771Z,7.97
2018-12-17T17:36:30.849Z,7.87
2018-12-17T17:40:33.761Z,7.90
2018-12-17T17:44:36.621Z,9.00
2018-12-17T17:48:39.701Z,8.07
2018-12-17T17:52:42.629Z,8.83
2018-12-17T17:56:45.505Z,7.80
2018-12-17T18:00:48.591Z,8.97
2018-12-17T18:04:51.743Z,7.93
2018-12-17T18:08:54.600Z,7.80
2018-12-17T18:12:57.482Z,9.10
2018-12-17T18:17:00.559Z,8.47
2018-12-17T18:21:03.493Z,8.60
2018-12-17T18:25:06.425Z,9.20
2018-12-17T18:29:09.572Z,8.23
2018-12-17T18:33:12.583Z,9.63
2018-12-17T18:37:15.589Z,8.90
2018-12-17T18:41:18.797Z,9.80
2018-12-17T18:45:21.943Z,9.40
2018-12-17T18:49:24.811Z,8.13
2018-12-17T18:53:27.894Z,7.90
2018-12-17T18:57:31.033Z,8.80
2018-12-17T19:01:33.988Z,8.03
2018-12-17T19:05:37.072Z,8.27
2018-12-17T19:09:40.077Z,8.27
2018-12-17T19:13:43.162Z,7.67
2018-12-17T19:17:46.112Z,7.63
2018-12-17T19:21:49.049Z,6.90
2018-12-17T19:25:51.949Z,6.60
2018-12-17T19:29:54.874Z,5.40
2018-12-17T19:33:57.954Z,7.57
2018-12-17T19:38:00.936Z,5.40
2018-12-17T19:42:03.882Z,4.90
2018-12-17T19:46:06.774Z,5.90
2018-12-17T19:50:09.669Z,5.50
2018-12-17T19:54:12.816Z,7.80
2018-12-17T19:58:15.713Z,7.60
2018-12-17T20:02:18.621Z,8.50
2018-12-17T20:06:22.615Z,13.50
2018-12-17T20:10:26.403Z,11.03
2018-12-17T20:14:29.509Z,11.83
2018-12-17T20:18:32.385Z,10.40
2018-12-17T20:22:35.282Z,11.60
2018-12-17T20:26:38.419Z,11.97
2018-12-17T20:30:41.394Z,12.70
2018-12-17T20:34:44.490Z,13.93
2018-12-17T20:38:47.684Z,14.73
2018-12-17T20:42:50.578Z,12.00
2018-12-17T20:46:53.859Z,13.27
2018-12-17T20:50:56.741Z,11.80
2018-12-17T20:54:59.639Z,12.80
2018-12-17T20:59:02.815Z,12.50
2018-12-17T21:03:05.942Z,12.77
2018-12-17T21:07:08.835Z,13.50
2018-12-17T21:11:11.866Z,13.80
2018-12-17T21:15:15.018Z,13.30
2018-12-17T21:19:17.925Z,11.73
2018-12-17T21:23:21.397Z,12.23
2018-12-17T21:27:24.303Z,12.33
2018-12-17T21:31:27.199Z,12.67
2018-12-17T21:35:30.311Z,11.27
2018-12-17T21:39:33.477Z,13.30
2018-12-17T21:43:38.920Z,13.87
2018-12-17T21:47:42.141Z,13.73
2018-12-17T21:51:45.035Z,13.13
2018-12-17T21:55:48.127Z,13.10
2018-12-17T21:59:51.366Z,13.37
2018-12-17T22:03:55.342Z,13.40
2018-12-17T22:07:58.224Z,15.30
2018-12-17T22:12:01.391Z,13.07
2018-12-17T22:16:04.394Z,15.07
2018-12-17T22:20:07.342Z,15.27
2018-12-17T22:24:10.245Z,14.93
2018-12-17T22:28:13.153Z,14.27
2018-12-17T22:32:16.480Z,14.60
2018-12-17T22:36:19.385Z,15.23
2018-12-17T22:40:22.525Z,15.10
2018-12-17T22:44:25.408Z,16.07
2018-12-17T22:48:28.413Z,14.00
2018-12-17T22:52:31.600Z,15.70
2018-12-17T22:56:34.529Z,15.50
2018-12-17T23:00:37.496Z,15.57
2018-12-17T23:04:40.427Z,15.40
2018-12-17T23:08:48.807Z,16.40
2018-12-17T23:13:03.534Z,15.27
2018-12-17T23:17:12.197Z,14.90
2018-12-17T23:21:17.089Z,15.73
2018-12-17T23:25:20.001Z,16.37
2018-12-17T23:29:23.147Z,16.30
2018-12-17T23:33:32.588Z,18.70
2018-12-17T23:37:31.142Z,21.60
2018-12-17T23:41:34.046Z,22.90
2018-12-17T23:45:36.955Z,24.10
2018-12-17T23:49:39.846Z,24.10
2018-12-17T23:53:42.822Z,26.67
2018-12-17T23:57:45.995Z,27.60
